sensor_id;sensor_type;location;lat;lon;timestamp;P1;durP1;ratioP1;P2;durP2;ratioP2
82646;SDS011;72325;41.910;22.404;2024-02-16T00:01:00;23.17;;;12.20;;
82646;SDS011;72325;41.910;22.404;2024-02-16T00:03:27;20.65;;;10.90;;
82646;SDS011;72325;41.910;22.404;2024-02-16T00:05:53;24.05;;;13.38;;
82646;SDS011;72325;41.910;22.404;2024-02-16T00:08:19;22.48;;;11.65;;
82646;SDS011;72325;41.910;22.404;2024-02-16T00:10:45;18.17;;;8.85;;
82646;SDS011;72325;41.910;22.404;2024-02-16T00:13:12;16.38;;;8.80;;
82646;SDS011;72325;41.910;22.404;2024-02-16T00:15:38;18.63;;;10.57;;
82646;SDS011;72325;41.910;22.404;2024-02-16T00:18:04;14.95;;;8.10;;
82646;SDS011;72325;41.910;22.404;2024-02-16T00:20:31;12.35;;;7.13;;
82646;SDS011;72325;41.910;22.404;2024-02-16T00:22:57;11.13;;;6.57;;
82646;SDS011;72325;41.910;22.404;2024-02-16T00:25:25;16.42;;;7.55;;
82646;SDS011;72325;41.910;22.404;2024-02-16T00:27:51;13.10;;;6.90;;
82646;SDS011;72325;41.910;22.404;2024-02-16T00:30:18;11.15;;;6.28;;
82646;SDS011;72325;41.910;22.404;2024-02-16T00:35:48;11.30;;;6.38;;
82646;SDS011;72325;41.910;22.404;2024-02-16T00:38:14;9.38;;;5.88;;
82646;SDS011;72325;41.910;22.404;2024-02-16T00:40:40;8.88;;;5.60;;
82646;SDS011;72325;41.910;22.404;2024-02-16T00:43:09;10.02;;;6.65;;
82646;SDS011;72325;41.910;22.404;2024-02-16T00:45:35;20.02;;;11.32;;
82646;SDS011;72325;41.910;22.404;2024-02-16T00:48:01;29.15;;;13.25;;
82646;SDS011;72325;41.910;22.404;2024-02-16T00:50:28;21.60;;;13.38;;
82646;SDS011;72325;41.910;22.404;2024-02-16T00:52:54;27.67;;;14.32;;
82646;SDS011;72325;41.910;22.404;2024-02-16T00:55:20;20.90;;;11.57;;
82646;SDS011;72325;41.910;22.404;2024-02-16T00:57:47;17.05;;;11.15;;
82646;SDS011;72325;41.910;22.404;2024-02-16T01:00:13;25.10;;;14.07;;
82646;SDS011;72325;41.910;22.404;2024-02-16T01:05:43;18.10;;;10.32;;
82646;SDS011;72325;41.910;22.404;2024-02-16T01:08:09;22.30;;;12.25;;
82646;SDS011;72325;41.910;22.404;2024-02-16T01:10:36;19.77;;;10.70;;
82646;SDS011;72325;41.910;22.404;2024-02-16T01:13:02;24.27;;;12.35;;
82646;SDS011;72325;41.910;22.404;2024-02-16T01:15:28;19.92;;;10.10;;
82646;SDS011;72325;41.910;22.404;2024-02-16T01:20:58;31.42;;;18.45;;
82646;SDS011;72325;41.910;22.404;2024-02-16T01:23:24;25.50;;;15.38;;
82646;SDS011;72325;41.910;22.404;2024-02-16T01:25:50;26.02;;;14.15;;
82646;SDS011;72325;41.910;22.404;2024-02-16T01:28:16;26.25;;;15.80;;
82646;SDS011;72325;41.910;22.404;2024-02-16T01:30:43;27.85;;;15.98;;
82646;SDS011;72325;41.910;22.404;2024-02-16T01:36:12;23.23;;;14.50;;
82646;SDS011;72325;41.910;22.404;2024-02-16T01:38:38;23.70;;;13.07;;
82646;SDS011;72325;41.910;22.404;2024-02-16T01:41:05;19.10;;;10.80;;
82646;SDS011;72325;41.910;22.404;2024-02-16T01:43:32;23.15;;;12.38;;
82646;SDS011;72325;41.910;22.404;2024-02-16T01:45:58;27.17;;;14.63;;
82646;SDS011;72325;41.910;22.404;2024-02-16T01:48:25;24.83;;;13.43;;
82646;SDS011;72325;41.910;22.404;2024-02-16T01:50:51;27.25;;;14.52;;
82646;SDS011;72325;41.910;22.404;2024-02-16T01:53:17;26.67;;;15.02;;
82646;SDS011;72325;41.910;22.404;2024-02-16T01:55:47;26.85;;;15.15;;
82646;SDS011;72325;41.910;22.404;2024-02-16T01:58:13;25.80;;;14.57;;
82646;SDS011;72325;41.910;22.404;2024-02-16T02:00:40;27.83;;;14.38;;
82646;SDS011;72325;41.910;22.404;2024-02-16T02:06:09;25.65;;;15.27;;
82646;SDS011;72325;41.910;22.404;2024-02-16T02:08:35;23.90;;;14.32;;
82646;SDS011;72325;41.910;22.404;2024-02-16T02:11:01;24.58;;;13.70;;
82646;SDS011;72325;41.910;22.404;2024-02-16T02:13:27;22.33;;;13.00;;
82646;SDS011;72325;41.910;22.404;2024-02-16T02:15:55;25.40;;;12.88;;
82646;SDS011;72325;41.910;22.404;2024-02-16T02:21:25;17.50;;;10.73;;
82646;SDS011;72325;41.910;22.404;2024-02-16T02:23:51;12.15;;;7.80;;
82646;SDS011;72325;41.910;22.404;2024-02-16T02:26:17;24.27;;;12.57;;
82646;SDS011;72325;41.910;22.404;2024-02-16T02:28:43;22.38;;;11.55;;
82646;SDS011;72325;41.910;22.404;2024-02-16T02:31:10;17.08;;;9.88;;
82646;SDS011;72325;41.910;22.404;2024-02-16T02:33:36;19.02;;;10.35;;
82646;SDS011;72325;41.910;22.404;2024-02-16T02:36:02;18.52;;;10.30;;
82646;SDS011;72325;41.910;22.404;2024-02-16T02:38:30;18.20;;;10.70;;
82646;SDS011;72325;41.910;22.404;2024-02-16T02:40:56;27.35;;;13.50;;
82646;SDS011;72325;41.910;22.404;2024-02-16T02:43:22;26.13;;;14.48;;
82646;SDS011;72325;41.910;22.404;2024-02-16T02:45:48;31.92;;;16.50;;
82646;SDS011;72325;41.910;22.404;2024-02-16T02:51:18;30.58;;;15.27;;
82646;SDS011;72325;41.910;22.404;2024-02-16T02:53:44;27.48;;;15.57;;
82646;SDS011;72325;41.910;22.404;2024-02-16T02:56:10;33.70;;;15.50;;
82646;SDS011;72325;41.910;22.404;2024-02-16T02:58:38;29.10;;;14.80;;
82646;SDS011;72325;41.910;22.404;2024-02-16T03:01:04;30.23;;;15.50;;
82646;SDS011;72325;41.910;22.404;2024-02-16T03:06:36;31.85;;;15.95;;
82646;SDS011;72325;41.910;22.404;2024-02-16T03:09:02;36.58;;;15.25;;
82646;SDS011;72325;41.910;22.404;2024-02-16T03:11:28;32.92;;;15.98;;
82646;SDS011;72325;41.910;22.404;2024-02-16T03:13:54;26.25;;;14.15;;
82646;SDS011;72325;41.910;22.404;2024-02-16T03:16:20;28.48;;;14.77;;
82646;SDS011;72325;41.910;22.404;2024-02-16T03:18:46;28.33;;;14.15;;
82646;SDS011;72325;41.910;22.404;2024-02-16T03:21:13;29.00;;;14.73;;
82646;SDS011;72325;41.910;22.404;2024-02-16T03:26:15;34.20;;;16.25;;
82646;SDS011;72325;41.910;22.404;2024-02-16T03:28:43;33.47;;;15.95;;
82646;SDS011;72325;41.910;22.404;2024-02-16T03:31:21;37.95;;;17.38;;
82646;SDS011;72325;41.910;22.404;2024-02-16T03:37:09;31.02;;;16.10;;
82646;SDS011;72325;41.910;22.404;2024-02-16T03:39:35;35.65;;;17.30;;
82646;SDS011;72325;41.910;22.404;2024-02-16T03:42:01;35.17;;;17.50;;
82646;SDS011;72325;41.910;22.404;2024-02-16T03:44:28;36.63;;;19.25;;
82646;SDS011;72325;41.910;22.404;2024-02-16T03:46:54;38.22;;;17.80;;
82646;SDS011;72325;41.910;22.404;2024-02-16T03:49:20;38.67;;;19.08;;
82646;SDS011;72325;41.910;22.404;2024-02-16T03:51:46;37.55;;;18.60;;
82646;SDS011;72325;41.910;22.404;2024-02-16T03:54:12;36.08;;;17.88;;
82646;SDS011;72325;41.910;22.404;2024-02-16T03:56:38;33.25;;;17.65;;
82646;SDS011;72325;41.910;22.404;2024-02-16T03:59:05;50.50;;;24.17;;
82646;SDS011;72325;41.910;22.404;2024-02-16T04:01:31;44.50;;;23.27;;
82646;SDS011;72325;41.910;22.404;2024-02-16T04:03:57;37.80;;;20.45;;
82646;SDS011;72325;41.910;22.404;2024-02-16T04:06:23;42.85;;;20.73;;
82646;SDS011;72325;41.910;22.404;2024-02-16T04:08:50;39.85;;;19.65;;
82646;SDS011;72325;41.910;22.404;2024-02-16T04:11:16;30.17;;;14.30;;
82646;SDS011;72325;41.910;22.404;2024-02-16T04:13:42;40.33;;;21.75;;
82646;SDS011;72325;41.910;22.404;2024-02-16T04:16:08;28.17;;;14.25;;
82646;SDS011;72325;41.910;22.404;2024-02-16T04:21:37;16.50;;;10.10;;
82646;SDS011;72325;41.910;22.404;2024-02-16T04:24:04;16.83;;;8.65;;
82646;SDS011;72325;41.910;22.404;2024-02-16T04:26:30;15.88;;;7.88;;
82646;SDS011;72325;41.910;22.404;2024-02-16T04:28:56;20.27;;;8.93;;
82646;SDS011;72325;41.910;22.404;2024-02-16T04:31:22;20.63;;;11.65;;
82646;SDS011;72325;41.910;22.404;2024-02-16T04:36:51;30.98;;;15.52;;
82646;SDS011;72325;41.910;22.404;2024-02-16T04:39:17;21.25;;;11.40;;
82646;SDS011;72325;41.910;22.404;2024-02-16T04:41:44;31.73;;;13.00;;
82646;SDS011;72325;41.910;22.404;2024-02-16T04:44:10;29.55;;;13.40;;
82646;SDS011;72325;41.910;22.404;2024-02-16T04:46:37;28.77;;;14.95;;
82646;SDS011;72325;41.910;22.404;2024-02-16T04:52:07;31.42;;;15.65;;
82646;SDS011;72325;41.910;22.404;2024-02-16T04:54:33;27.95;;;15.38;;
82646;SDS011;72325;41.910;22.404;2024-02-16T04:56:59;23.13;;;13.27;;
82646;SDS011;72325;41.910;22.404;2024-02-16T04:59:25;28.85;;;16.45;;
82646;SDS011;72325;41.910;22.404;2024-02-16T05:01:52;38.75;;;22.73;;
82646;SDS011;72325;41.910;22.404;2024-02-16T05:04:18;24.40;;;15.02;;
82646;SDS011;72325;41.910;22.404;2024-02-16T05:06:45;28.08;;;15.05;;
82646;SDS011;72325;41.910;22.404;2024-02-16T05:09:11;20.80;;;12.35;;
82646;SDS011;72325;41.910;22.404;2024-02-16T05:11:42;26.85;;;13.27;;
82646;SDS011;72325;41.910;22.404;2024-02-16T05:14:08;20.10;;;12.43;;
82646;SDS011;72325;41.910;22.404;2024-02-16T05:16:34;22.60;;;12.90;;
82646;SDS011;72325;41.910;22.404;2024-02-16T05:22:04;24.52;;;14.55;;
82646;SDS011;72325;41.910;22.404;2024-02-16T05:24:30;44.95;;;24.95;;
82646;SDS011;72325;41.910;22.404;2024-02-16T05:26:56;27.45;;;16.67;;
82646;SDS011;72325;41.910;22.404;2024-02-16T05:29:22;33.00;;;17.58;;
82646;SDS011;72325;41.910;22.404;2024-02-16T05:31:50;36.03;;;18.38;;
82646;SDS011;72325;41.910;22.404;2024-02-16T05:37:19;22.42;;;13.05;;
82646;SDS011;72325;41.910;22.404;2024-02-16T05:39:47;21.80;;;12.02;;
82646;SDS011;72325;41.910;22.404;2024-02-16T05:42:22;17.30;;;9.68;;
82646;SDS011;72325;41.910;22.404;2024-02-16T05:44:48;20.40;;;11.23;;
82646;SDS011;72325;41.910;22.404;2024-02-16T05:47:17;20.45;;;11.98;;
82646;SDS011;72325;41.910;22.404;2024-02-16T05:49:45;23.15;;;11.02;;
82646;SDS011;72325;41.910;22.404;2024-02-16T05:52:11;20.25;;;12.55;;
82646;SDS011;72325;41.910;22.404;2024-02-16T05:54:46;21.80;;;13.57;;
82646;SDS011;72325;41.910;22.404;2024-02-16T05:57:14;27.27;;;14.50;;
82646;SDS011;72325;41.910;22.404;2024-02-16T05:59:40;26.25;;;15.05;;
82646;SDS011;72325;41.910;22.404;2024-02-16T06:02:07;29.13;;;16.38;;
82646;SDS011;72325;41.910;22.404;2024-02-16T06:07:37;36.50;;;19.38;;
82646;SDS011;72325;41.910;22.404;2024-02-16T06:10:03;33.28;;;18.67;;
82646;SDS011;72325;41.910;22.404;2024-02-16T06:12:32;58.75;;;30.58;;
82646;SDS011;72325;41.910;22.404;2024-02-16T06:14:58;57.13;;;31.17;;
82646;SDS011;72325;41.910;22.404;2024-02-16T06:17:25;57.40;;;32.40;;
82646;SDS011;72325;41.910;22.404;2024-02-16T06:19:51;48.92;;;28.95;;
82646;SDS011;72325;41.910;22.404;2024-02-16T06:22:17;49.15;;;29.77;;
82646;SDS011;72325;41.910;22.404;2024-02-16T06:24:44;59.03;;;32.58;;
82646;SDS011;72325;41.910;22.404;2024-02-16T06:27:10;56.92;;;32.38;;
82646;SDS011;72325;41.910;22.404;2024-02-16T06:29:36;52.83;;;29.98;;
82646;SDS011;72325;41.910;22.404;2024-02-16T06:32:03;54.97;;;31.05;;
82646;SDS011;72325;41.910;22.404;2024-02-16T06:37:32;47.67;;;28.63;;
82646;SDS011;72325;41.910;22.404;2024-02-16T06:39:58;36.67;;;20.98;;
82646;SDS011;72325;41.910;22.404;2024-02-16T06:42:25;41.08;;;23.60;;
82646;SDS011;72325;41.910;22.404;2024-02-16T06:44:51;36.22;;;22.48;;
82646;SDS011;72325;41.910;22.404;2024-02-16T06:47:17;39.80;;;22.88;;
82646;SDS011;72325;41.910;22.404;2024-02-16T06:52:52;65.97;;;38.45;;
82646;SDS011;72325;41.910;22.404;2024-02-16T06:55:20;48.40;;;32.35;;
82646;SDS011;72325;41.910;22.404;2024-02-16T06:57:46;26.20;;;15.65;;
82646;SDS011;72325;41.910;22.404;2024-02-16T07:00:12;24.73;;;13.50;;
82646;SDS011;72325;41.910;22.404;2024-02-16T07:02:40;23.80;;;14.52;;
82646;SDS011;72325;41.910;22.404;2024-02-16T07:05:07;29.60;;;15.52;;
82646;SDS011;72325;41.910;22.404;2024-02-16T07:07:33;23.05;;;14.07;;
82646;SDS011;72325;41.910;22.404;2024-02-16T07:10:01;23.88;;;12.57;;
82646;SDS011;72325;41.910;22.404;2024-02-16T07:12:27;24.08;;;15.45;;
82646;SDS011;72325;41.910;22.404;2024-02-16T07:14:53;18.77;;;10.98;;
82646;SDS011;72325;41.910;22.404;2024-02-16T07:17:19;16.88;;;10.73;;
82646;SDS011;72325;41.910;22.404;2024-02-16T07:22:49;18.55;;;10.27;;
82646;SDS011;72325;41.910;22.404;2024-02-16T07:25:16;23.02;;;13.45;;
82646;SDS011;72325;41.910;22.404;2024-02-16T07:27:43;22.20;;;12.80;;
82646;SDS011;72325;41.910;22.404;2024-02-16T07:30:09;32.47;;;16.05;;
82646;SDS011;72325;41.910;22.404;2024-02-16T07:32:38;29.67;;;15.38;;
82646;SDS011;72325;41.910;22.404;2024-02-16T07:38:08;25.27;;;16.52;;
82646;SDS011;72325;41.910;22.404;2024-02-16T07:40:34;26.15;;;15.07;;
82646;SDS011;72325;41.910;22.404;2024-02-16T07:43:00;23.20;;;13.15;;
82646;SDS011;72325;41.910;22.404;2024-02-16T07:45:28;21.92;;;12.85;;
82646;SDS011;72325;41.910;22.404;2024-02-16T07:47:54;22.42;;;13.43;;
82646;SDS011;72325;41.910;22.404;2024-02-16T07:53:42;18.50;;;12.80;;
82646;SDS011;72325;41.910;22.404;2024-02-16T07:56:11;20.80;;;13.05;;
82646;SDS011;72325;41.910;22.404;2024-02-16T07:58:37;20.05;;;11.93;;
82646;SDS011;72325;41.910;22.404;2024-02-16T08:01:03;17.05;;;11.95;;
82646;SDS011;72325;41.910;22.404;2024-02-16T08:03:29;25.38;;;11.88;;
82646;SDS011;72325;41.910;22.404;2024-02-16T08:05:55;13.73;;;10.10;;
82646;SDS011;72325;41.910;22.404;2024-02-16T08:08:22;17.80;;;10.90;;
82646;SDS011;72325;41.910;22.404;2024-02-16T08:10:48;20.38;;;10.80;;
82646;SDS011;72325;41.910;22.404;2024-02-16T08:13:16;18.25;;;10.85;;
82646;SDS011;72325;41.910;22.404;2024-02-16T08:15:43;20.10;;;13.85;;
82646;SDS011;72325;41.910;22.404;2024-02-16T08:18:09;16.67;;;9.63;;
82646;SDS011;72325;41.910;22.404;2024-02-16T08:23:57;17.00;;;8.85;;
82646;SDS011;72325;41.910;22.404;2024-02-16T08:26:24;13.75;;;8.98;;
82646;SDS011;72325;41.910;22.404;2024-02-16T08:28:50;12.45;;;7.53;;
82646;SDS011;72325;41.910;22.404;2024-02-16T08:31:17;17.67;;;9.00;;
82646;SDS011;72325;41.910;22.404;2024-02-16T08:33:44;17.40;;;9.80;;
82646;SDS011;72325;41.910;22.404;2024-02-16T08:36:11;13.05;;;8.35;;
82646;SDS011;72325;41.910;22.404;2024-02-16T08:38:38;14.80;;;9.50;;
82646;SDS011;72325;41.910;22.404;2024-02-16T08:41:04;12.85;;;8.43;;
82646;SDS011;72325;41.910;22.404;2024-02-16T08:43:30;14.10;;;8.88;;
82646;SDS011;72325;41.910;22.404;2024-02-16T08:45:56;18.20;;;11.55;;
82646;SDS011;72325;41.910;22.404;2024-02-16T08:48:24;15.05;;;9.07;;
82646;SDS011;72325;41.910;22.404;2024-02-16T08:54:30;16.38;;;9.52;;
82646;SDS011;72325;41.910;22.404;2024-02-16T08:56:56;13.98;;;8.30;;
82646;SDS011;72325;41.910;22.404;2024-02-16T08:59:22;13.77;;;9.05;;
82646;SDS011;72325;41.910;22.404;2024-02-16T09:01:48;13.85;;;8.15;;
82646;SDS011;72325;41.910;22.404;2024-02-16T09:04:14;16.58;;;9.82;;
82646;SDS011;72325;41.910;22.404;2024-02-16T09:06:41;12.90;;;8.60;;
82646;SDS011;72325;41.910;22.404;2024-02-16T09:09:07;12.70;;;8.77;;
82646;SDS011;72325;41.910;22.404;2024-02-16T09:11:33;12.85;;;7.72;;
82646;SDS011;72325;41.910;22.404;2024-02-16T09:13:59;13.00;;;8.73;;
82646;SDS011;72325;41.910;22.404;2024-02-16T09:16:25;15.85;;;8.13;;
82646;SDS011;72325;41.910;22.404;2024-02-16T09:18:52;15.15;;;9.45;;
82646;SDS011;72325;41.910;22.404;2024-02-16T09:21:18;12.13;;;7.88;;
82646;SDS011;72325;41.910;22.404;2024-02-16T09:23:44;12.85;;;7.78;;
82646;SDS011;72325;41.910;22.404;2024-02-16T09:26:10;13.57;;;8.40;;
82646;SDS011;72325;41.910;22.404;2024-02-16T09:28:40;10.77;;;7.43;;
82646;SDS011;72325;41.910;22.404;2024-02-16T09:31:06;12.70;;;7.80;;
82646;SDS011;72325;41.910;22.404;2024-02-16T09:33:33;13.40;;;7.85;;
82646;SDS011;72325;41.910;22.404;2024-02-16T09:39:03;13.30;;;8.32;;
82646;SDS011;72325;41.910;22.404;2024-02-16T09:41:32;15.70;;;7.68;;
82646;SDS011;72325;41.910;22.404;2024-02-16T09:43:58;12.65;;;7.82;;
82646;SDS011;72325;41.910;22.404;2024-02-16T09:46:25;13.40;;;8.88;;
82646;SDS011;72325;41.910;22.404;2024-02-16T09:48:52;16.92;;;9.82;;
82646;SDS011;72325;41.910;22.404;2024-02-16T09:54:22;13.25;;;9.15;;
82646;SDS011;72325;41.910;22.404;2024-02-16T09:56:50;12.48;;;8.02;;
82646;SDS011;72325;41.910;22.404;2024-02-16T09:59:16;12.85;;;8.52;;
82646;SDS011;72325;41.910;22.404;2024-02-16T10:01:42;17.33;;;10.52;;
82646;SDS011;72325;41.910;22.404;2024-02-16T10:04:08;11.50;;;6.88;;
82646;SDS011;72325;41.910;22.404;2024-02-16T10:06:55;10.48;;;7.18;;
82646;SDS011;72325;41.910;22.404;2024-02-16T10:09:22;10.20;;;7.13;;
82646;SDS011;72325;41.910;22.404;2024-02-16T10:11:49;15.63;;;10.80;;
82646;SDS011;72325;41.910;22.404;2024-02-16T10:14:16;13.63;;;9.20;;
82646;SDS011;72325;41.910;22.404;2024-02-16T10:16:44;13.95;;;8.00;;
82646;SDS011;72325;41.910;22.404;2024-02-16T10:19:11;9.30;;;6.43;;
82646;SDS011;72325;41.910;22.404;2024-02-16T10:21:37;8.63;;;5.65;;
82646;SDS011;72325;41.910;22.404;2024-02-16T10:24:07;9.07;;;6.32;;
82646;SDS011;72325;41.910;22.404;2024-02-16T10:26:34;13.48;;;7.80;;
82646;SDS011;72325;41.910;22.404;2024-02-16T10:29:10;10.40;;;7.47;;
82646;SDS011;72325;41.910;22.404;2024-02-16T10:31:37;9.95;;;6.88;;
82646;SDS011;72325;41.910;22.404;2024-02-16T10:34:03;8.73;;;6.28;;
82646;SDS011;72325;41.910;22.404;2024-02-16T10:39:38;7.75;;;4.90;;
82646;SDS011;72325;41.910;22.404;2024-02-16T10:42:05;7.43;;;5.30;;
82646;SDS011;72325;41.910;22.404;2024-02-16T10:44:32;8.88;;;6.15;;
82646;SDS011;72325;41.910;22.404;2024-02-16T10:47:00;11.05;;;5.47;;
82646;SDS011;72325;41.910;22.404;2024-02-16T10:49:26;8.55;;;5.65;;
82646;SDS011;72325;41.910;22.404;2024-02-16T10:51:54;8.32;;;5.50;;
82646;SDS011;72325;41.910;22.404;2024-02-16T10:54:22;7.38;;;4.85;;
82646;SDS011;72325;41.910;22.404;2024-02-16T10:56:49;7.15;;;4.90;;
82646;SDS011;72325;41.910;22.404;2024-02-16T10:59:16;7.43;;;5.05;;
82646;SDS011;72325;41.910;22.404;2024-02-16T11:01:42;7.07;;;4.63;;
82646;SDS011;72325;41.910;22.404;2024-02-16T11:04:13;12.18;;;6.40;;
82646;SDS011;72325;41.910;22.404;2024-02-16T11:09:59;8.63;;;5.65;;
82646;SDS011;72325;41.910;22.404;2024-02-16T11:12:26;7.03;;;4.68;;
82646;SDS011;72325;41.910;22.404;2024-02-16T11:15:00;9.20;;;5.88;;
82646;SDS011;72325;41.910;22.404;2024-02-16T11:17:26;8.70;;;5.90;;
82646;SDS011;72325;41.910;22.404;2024-02-16T11:19:57;9.30;;;6.20;;
82646;SDS011;72325;41.910;22.404;2024-02-16T11:22:26;8.25;;;4.97;;
82646;SDS011;72325;41.910;22.404;2024-02-16T11:24:53;8.27;;;4.03;;
82646;SDS011;72325;41.910;22.404;2024-02-16T11:27:20;8.25;;;4.22;;
82646;SDS011;72325;41.910;22.404;2024-02-16T11:29:47;5.25;;;3.80;;
82646;SDS011;72325;41.910;22.404;2024-02-16T11:32:13;10.25;;;5.68;;
82646;SDS011;72325;41.910;22.404;2024-02-16T11:34:39;7.32;;;4.75;;
82646;SDS011;72325;41.910;22.404;2024-02-16T11:40:11;8.60;;;5.95;;
82646;SDS011;72325;41.910;22.404;2024-02-16T11:42:37;9.68;;;5.90;;
82646;SDS011;72325;41.910;22.404;2024-02-16T11:45:04;10.45;;;6.90;;
82646;SDS011;72325;41.910;22.404;2024-02-16T11:47:31;8.70;;;6.43;;
82646;SDS011;72325;41.910;22.404;2024-02-16T11:55:11;10.90;;;7.78;;
82646;SDS011;72325;41.910;22.404;2024-02-16T11:57:37;10.50;;;6.25;;
82646;SDS011;72325;41.910;22.404;2024-02-16T12:00:04;12.95;;;8.10;;
82646;SDS011;72325;41.910;22.404;2024-02-16T12:02:36;9.77;;;6.40;;
82646;SDS011;72325;41.910;22.404;2024-02-16T12:05:03;13.90;;;9.60;;
82646;SDS011;72325;41.910;22.404;2024-02-16T12:10:33;13.55;;;8.90;;
82646;SDS011;72325;41.910;22.404;2024-02-16T12:12:59;9.70;;;7.20;;
82646;SDS011;72325;41.910;22.404;2024-02-16T12:15:26;9.82;;;6.90;;
82646;SDS011;72325;41.910;22.404;2024-02-16T12:17:58;8.77;;;6.75;;
82646;SDS011;72325;41.910;22.404;2024-02-16T12:20:25;12.18;;;7.20;;
82646;SDS011;72325;41.910;22.404;2024-02-16T12:22:51;8.85;;;5.32;;
82646;SDS011;72325;41.910;22.404;2024-02-16T12:25:18;8.77;;;5.25;;
82646;SDS011;72325;41.910;22.404;2024-02-16T12:27:44;7.60;;;5.70;;
82646;SDS011;72325;41.910;22.404;2024-02-16T12:30:10;8.38;;;6.20;;
82646;SDS011;72325;41.910;22.404;2024-02-16T12:32:36;9.30;;;6.40;;
82646;SDS011;72325;41.910;22.404;2024-02-16T12:35:03;8.48;;;6.25;;
82646;SDS011;72325;41.910;22.404;2024-02-16T12:40:34;9.00;;;5.63;;
82646;SDS011;72325;41.910;22.404;2024-02-16T12:43:00;6.15;;;4.55;;
82646;SDS011;72325;41.910;22.404;2024-02-16T12:45:26;8.27;;;6.38;;
82646;SDS011;72325;41.910;22.404;2024-02-16T12:47:52;9.25;;;6.57;;
82646;SDS011;72325;41.910;22.404;2024-02-16T12:50:18;8.38;;;6.30;;
82646;SDS011;72325;41.910;22.404;2024-02-16T12:55:48;11.35;;;7.20;;
82646;SDS011;72325;41.910;22.404;2024-02-16T12:58:14;10.32;;;6.13;;
82646;SDS011;72325;41.910;22.404;2024-02-16T13:00:40;10.05;;;6.38;;
82646;SDS011;72325;41.910;22.404;2024-02-16T13:03:06;11.55;;;7.63;;
82646;SDS011;72325;41.910;22.404;2024-02-16T13:05:33;8.63;;;5.63;;
82646;SDS011;72325;41.910;22.404;2024-02-16T13:11:02;10.07;;;7.10;;
82646;SDS011;72325;41.910;22.404;2024-02-16T13:13:29;9.20;;;6.18;;
82646;SDS011;72325;41.910;22.404;2024-02-16T13:15:55;7.72;;;5.65;;
82646;SDS011;72325;41.910;22.404;2024-02-16T13:18:23;11.02;;;7.03;;
82646;SDS011;72325;41.910;22.404;2024-02-16T13:20:49;9.93;;;6.15;;
82646;SDS011;72325;41.910;22.404;2024-02-16T13:23:15;9.90;;;5.93;;
82646;SDS011;72325;41.910;22.404;2024-02-16T13:25:41;8.43;;;5.82;;
82646;SDS011;72325;41.910;22.404;2024-02-16T13:28:07;5.85;;;4.18;;
82646;SDS011;72325;41.910;22.404;2024-02-16T13:30:33;11.80;;;6.57;;
82646;SDS011;72325;41.910;22.404;2024-02-16T13:33:00;8.02;;;5.00;;
82646;SDS011;72325;41.910;22.404;2024-02-16T13:35:27;9.25;;;6.25;;
82646;SDS011;72325;41.910;22.404;2024-02-16T13:40:57;9.88;;;4.97;;
82646;SDS011;72325;41.910;22.404;2024-02-16T13:43:23;9.02;;;6.05;;
82646;SDS011;72325;41.910;22.404;2024-02-16T13:45:53;7.93;;;5.07;;
82646;SDS011;72325;41.910;22.404;2024-02-16T13:48:19;6.38;;;4.55;;
82646;SDS011;72325;41.910;22.404;2024-02-16T13:50:49;8.52;;;6.60;;
82646;SDS011;72325;41.910;22.404;2024-02-16T13:56:18;9.18;;;6.03;;
82646;SDS011;72325;41.910;22.404;2024-02-16T13:58:44;12.13;;;8.35;;
82646;SDS011;72325;41.910;22.404;2024-02-16T14:01:12;16.13;;;9.35;;
82646;SDS011;72325;41.910;22.404;2024-02-16T14:03:38;8.32;;;6.57;;
82646;SDS011;72325;41.910;22.404;2024-02-16T14:06:05;9.30;;;6.50;;
82646;SDS011;72325;41.910;22.404;2024-02-16T14:08:33;6.93;;;5.25;;
82646;SDS011;72325;41.910;22.404;2024-02-16T14:10:59;8.27;;;5.97;;
82646;SDS011;72325;41.910;22.404;2024-02-16T14:13:25;9.05;;;5.45;;
82646;SDS011;72325;41.910;22.404;2024-02-16T14:15:51;7.85;;;5.78;;
82646;SDS011;72325;41.910;22.404;2024-02-16T14:18:17;7.40;;;5.78;;
82646;SDS011;72325;41.910;22.404;2024-02-16T14:20:43;7.97;;;5.65;;
82646;SDS011;72325;41.910;22.404;2024-02-16T14:26:13;7.47;;;6.00;;
82646;SDS011;72325;41.910;22.404;2024-02-16T14:28:39;6.70;;;5.35;;
82646;SDS011;72325;41.910;22.404;2024-02-16T14:31:05;7.95;;;5.72;;
82646;SDS011;72325;41.910;22.404;2024-02-16T14:33:32;8.27;;;5.97;;
82646;SDS011;72325;41.910;22.404;2024-02-16T14:35:59;6.97;;;5.57;;
82646;SDS011;72325;41.910;22.404;2024-02-16T14:41:29;27.58;;;18.90;;
82646;SDS011;72325;41.910;22.404;2024-02-16T14:43:55;18.02;;;12.65;;
82646;SDS011;72325;41.910;22.404;2024-02-16T14:46:25;21.10;;;15.90;;
82646;SDS011;72325;41.910;22.404;2024-02-16T14:48:51;27.58;;;20.23;;
82646;SDS011;72325;41.910;22.404;2024-02-16T14:51:17;21.30;;;13.98;;
82646;SDS011;72325;41.910;22.404;2024-02-16T14:57:06;16.25;;;10.77;;
82646;SDS011;72325;41.910;22.404;2024-02-16T14:59:32;17.45;;;11.27;;
82646;SDS011;72325;41.910;22.404;2024-02-16T15:01:58;18.90;;;11.50;;
82646;SDS011;72325;41.910;22.404;2024-02-16T15:04:26;18.98;;;12.00;;
82646;SDS011;72325;41.910;22.404;2024-02-16T15:06:52;10.85;;;6.93;;
82646;SDS011;72325;41.910;22.404;2024-02-16T15:09:18;8.68;;;6.90;;
82646;SDS011;72325;41.910;22.404;2024-02-16T15:11:44;10.27;;;7.80;;
82646;SDS011;72325;41.910;22.404;2024-02-16T15:14:10;11.10;;;7.80;;
82646;SDS011;72325;41.910;22.404;2024-02-16T15:16:38;11.43;;;7.38;;
82646;SDS011;72325;41.910;22.404;2024-02-16T15:19:04;10.15;;;6.68;;
82646;SDS011;72325;41.910;22.404;2024-02-16T15:21:30;9.45;;;7.07;;
82646;SDS011;72325;41.910;22.404;2024-02-16T15:23:56;15.98;;;9.25;;
82646;SDS011;72325;41.910;22.404;2024-02-16T15:26:22;15.45;;;9.88;;
82646;SDS011;72325;41.910;22.404;2024-02-16T15:28:48;20.90;;;13.30;;
82646;SDS011;72325;41.910;22.404;2024-02-16T15:31:14;18.95;;;11.32;;
82646;SDS011;72325;41.910;22.404;2024-02-16T15:33:40;18.30;;;12.13;;
82646;SDS011;72325;41.910;22.404;2024-02-16T15:36:07;17.05;;;10.23;;
82646;SDS011;72325;41.910;22.404;2024-02-16T15:41:38;16.10;;;10.90;;
82646;SDS011;72325;41.910;22.404;2024-02-16T15:44:04;27.02;;;16.10;;
82646;SDS011;72325;41.910;22.404;2024-02-16T15:46:30;28.25;;;19.27;;
82646;SDS011;72325;41.910;22.404;2024-02-16T15:48:56;38.78;;;22.35;;
82646;SDS011;72325;41.910;22.404;2024-02-16T15:51:22;28.63;;;19.63;;
82646;SDS011;72325;41.910;22.404;2024-02-16T15:56:52;29.05;;;18.38;;
82646;SDS011;72325;41.910;22.404;2024-02-16T15:59:18;39.22;;;27.33;;
82646;SDS011;72325;41.910;22.404;2024-02-16T16:01:44;42.80;;;28.65;;
82646;SDS011;72325;41.910;22.404;2024-02-16T16:04:12;31.38;;;23.42;;
82646;SDS011;72325;41.910;22.404;2024-02-16T16:06:39;28.17;;;20.60;;
82646;SDS011;72325;41.910;22.404;2024-02-16T16:12:08;31.48;;;22.55;;
82646;SDS011;72325;41.910;22.404;2024-02-16T16:14:34;30.88;;;21.92;;
82646;SDS011;72325;41.910;22.404;2024-02-16T16:17:01;31.38;;;19.92;;
82646;SDS011;72325;41.910;22.404;2024-02-16T16:19:28;74.93;;;48.90;;
82646;SDS011;72325;41.910;22.404;2024-02-16T16:21:54;89.60;;;58.30;;
82646;SDS011;72325;41.910;22.404;2024-02-16T16:24:21;74.88;;;48.72;;